Accueil
METAR-TAF:

METAR-TAF

Aéroports :

Hunter Army Airfield / Fort Stewart

Savannah, Géorgie, États-Unis

latitude: 32-01N, longitude: 081-09W, altitude: 13 m

Observation

Le bulletin a été fait il y a 1 heure et 7 minutes, à 21:56 UTC
Vent 6 kt de nord-ouest
Température 17°C
Humidité 45%
Pression 1021 hPa
Visibilité: 16.1 km
Ciel clair

METAR: KSVN 202156Z AUTO 31006KT 10SM CLR 17/05 A3014 RMK AO2 SLP209 T01720052 $

Heure: 18:03 (23:03 UTC)

Prévision

Le bulletin a été fait il y a 2 heures et 3 minutes, à 21:00 UTC
Prévision valable du 20 à 21 UTC au 22 à 03 UTC
Vent 6 kt de nord/nord-est
Visibilité 10 km ou plus
Quelques nuages à une hauteur de 25000 ft

TAF: KSVN 202100Z 2021/2203 02006KT 9999 FEW250 QNH3011INS TX19/2021Z TN09/2112Z

Observations et prévisions météorologiques de plus de 4000 aéroports (messages METAR et TAF).

Les stations disponibles sont représentées par des disques jaunes et rouges sur la carte.

Passer la souris dessus pour voir le nom de la station.

Cliquer dessus pour voir les observations et prévisions météorologiques.

Pour changer de carte: cliquez sur les boutons verts avec une croix noire pour zoomer, sur le bouton vert avec un tiret pour effectuer un zoom arrière, ou sur les flèches vertes pour les cartes adjacentes.


METAR-TAF: